createdAt,value
2018-11-27T00:00:59.881Z,8.30
2018-11-27T00:03:37.656Z,8.29
2018-11-27T00:06:10.633Z,8.28
2018-11-27T00:08:43.136Z,8.28
2018-11-27T00:11:15.532Z,8.27
2018-11-27T00:13:47.709Z,8.39
2018-11-27T00:16:19.535Z,8.46
2018-11-27T00:18:51.620Z,8.36
2018-11-27T00:21:24.610Z,8.41
2018-11-27T00:23:56.890Z,8.44
2018-11-27T00:26:37.304Z,8.55
2018-11-27T00:29:10.270Z,8.46
2018-11-27T00:31:42.293Z,8.47
2018-11-27T00:34:14.888Z,8.36
2018-11-27T00:36:46.803Z,8.36
2018-11-27T00:39:18.835Z,8.39
2018-11-27T00:41:51.762Z,8.40
2018-11-27T00:44:27.316Z,8.35
2018-11-27T00:46:58.954Z,8.32
2018-11-27T00:49:30.342Z,8.08
2018-11-27T00:52:01.881Z,8.14
2018-11-27T01:01:38.156Z,8.08
2018-11-27T01:04:10.155Z,8.11
2018-11-27T01:06:45.677Z,8.19
2018-11-27T01:09:19.603Z,8.20
2018-11-27T01:11:52.348Z,8.33
2018-11-27T01:14:25.046Z,8.35
2018-11-27T01:17:01.531Z,8.34
2018-11-27T01:19:33.678Z,8.49
2018-11-27T01:22:06.592Z,8.45
2018-11-27T01:24:41.721Z,8.42
2018-11-27T01:27:16.953Z,8.41
2018-11-27T01:29:50.132Z,8.48
2018-11-27T01:32:22.258Z,8.48
2018-11-27T01:34:55.451Z,8.39
2018-11-27T01:37:27.967Z,8.35
2018-11-27T01:40:01.236Z,8.45
2018-11-27T01:42:37.545Z,8.37
2018-11-27T01:45:12.128Z,8.35
2018-11-27T01:47:44.792Z,8.40
2018-11-27T01:50:19.583Z,8.42
2018-11-27T01:52:58.198Z,8.48
2018-11-27T01:55:31.949Z,8.43
2018-11-27T01:58:05.677Z,8.49
2018-11-27T02:00:39.053Z,8.19
2018-11-27T02:03:17.022Z,8.15
2018-11-27T02:05:48.900Z,8.22
2018-11-27T02:08:21.434Z,8.27
2018-11-27T02:10:55.343Z,8.39
2018-11-27T02:13:30.281Z,8.23
2018-11-27T02:16:02.306Z,8.32
2018-11-27T02:18:36.073Z,8.29
2018-11-27T02:21:08.922Z,8.39
2018-11-27T02:23:43.068Z,8.27
2018-11-27T02:26:15.894Z,8.32
2018-11-27T02:28:50.605Z,8.23
2018-11-27T02:31:23.342Z,8.45
2018-11-27T02:33:55.521Z,8.23
2018-11-27T02:36:27.827Z,8.01
2018-11-27T02:39:02.091Z,7.90
2018-11-27T02:41:34.938Z,7.76
2018-11-27T02:44:07.528Z,7.90
2018-11-27T02:46:39.836Z,7.90
2018-11-27T02:49:16.823Z,7.99
2018-11-27T02:51:50.355Z,7.99
2018-11-27T02:54:22.301Z,8.09
2018-11-27T02:56:54.272Z,8.07
2018-11-27T02:59:27.303Z,8.15
2018-11-27T03:02:00.626Z,8.11
2018-11-27T03:04:35.620Z,8.12
2018-11-27T03:07:08.083Z,8.23
2018-11-27T03:09:40.116Z,8.42
2018-11-27T03:12:13.103Z,8.15
2018-11-27T03:14:46.063Z,8.16
2018-11-27T03:17:18.832Z,8.14
2018-11-27T03:19:56.362Z,8.13
2018-11-27T03:22:28.682Z,8.09
2018-11-27T03:25:02.692Z,8.05
2018-11-27T03:27:36.291Z,7.82
2018-11-27T03:30:14.749Z,7.75
2018-11-27T03:32:48.612Z,7.81
2018-11-27T03:35:23.488Z,7.92
2018-11-27T03:37:58.045Z,7.92
2018-11-27T03:40:33.124Z,8.02
2018-11-27T03:43:07.238Z,7.99
2018-11-27T03:45:42.597Z,7.80
2018-11-27T03:48:16.556Z,7.85
2018-11-27T03:50:51.207Z,7.91
2018-11-27T03:53:23.500Z,8.03
2018-11-27T03:55:57.201Z,8.13
2018-11-27T03:58:30.371Z,8.31
2018-11-27T04:01:03.561Z,8.24
2018-11-27T04:03:36.357Z,8.24
2018-11-27T04:06:10.229Z,8.39
2018-11-27T04:08:42.931Z,8.30
2018-11-27T04:11:14.892Z,8.19
2018-11-27T04:13:47.967Z,8.02
2018-11-27T04:16:20.045Z,8.13
2018-11-27T04:18:52.905Z,8.04
2018-11-27T04:21:26.725Z,8.19
2018-11-27T04:24:06.269Z,8.17
2018-11-27T04:26:40.239Z,8.24
2018-11-27T04:29:12.657Z,8.31
2018-11-27T04:31:48.352Z,8.10
2018-11-27T04:34:21.957Z,8.36
2018-11-27T04:36:54.406Z,8.14
2018-11-27T04:39:26.850Z,8.11
2018-11-27T04:42:03.358Z,8.31
2018-11-27T04:44:36.509Z,8.06
2018-11-27T04:47:08.303Z,8.19
2018-11-27T04:49:40.360Z,8.15
2018-11-27T04:52:13.321Z,8.23
2018-11-27T04:54:45.469Z,8.13
2018-11-27T04:57:17.693Z,8.32
2018-11-27T04:59:49.545Z,8.20
2018-11-27T05:02:22.122Z,8.08
2018-11-27T05:04:55.053Z,8.01
2018-11-27T05:07:27.576Z,8.04
2018-11-27T05:10:01.370Z,8.16
2018-11-27T05:12:33.665Z,8.17
2018-11-27T05:15:10.186Z,8.20
2018-11-27T05:17:47.926Z,8.19
2018-11-27T05:20:16.599Z,8.17
2018-11-27T05:22:48.731Z,8.43
2018-11-27T05:25:21.841Z,8.35
2018-11-27T05:27:57.179Z,8.04
2018-11-27T05:30:31.299Z,7.86
2018-11-27T05:33:04.176Z,7.87
2018-11-27T05:35:36.313Z,7.97
2018-11-27T05:38:09.160Z,7.97
2018-11-27T05:40:40.828Z,8.22
2018-11-27T05:44:37.870Z,8.27
2018-11-27T05:47:10.716Z,8.18
2018-11-27T05:49:43.505Z,8.00
2018-11-27T05:53:39.193Z,8.08
2018-11-27T05:56:11.609Z,8.25
2018-11-27T05:58:43.750Z,8.25
2018-11-27T06:01:18.014Z,8.31
2018-11-27T06:03:51.024Z,8.38
2018-11-27T06:06:24.763Z,8.31
2018-11-27T06:08:58.337Z,8.36
2018-11-27T06:11:31.080Z,8.39
2018-11-27T06:14:02.881Z,8.48
2018-11-27T06:16:34.354Z,8.43
2018-11-27T06:19:06.123Z,8.45
2018-11-27T06:21:37.537Z,8.48
2018-11-27T06:24:08.946Z,8.51
2018-11-27T06:26:40.459Z,8.52
2018-11-27T08:33:46.873Z,9.61
2018-11-27T08:36:18.095Z,9.68
2018-11-27T08:38:49.367Z,9.72
2018-11-27T08:41:20.461Z,9.26
2018-11-27T08:43:51.624Z,9.30
2018-11-27T08:46:22.792Z,9.14
2018-11-27T08:48:54.141Z,9.33
2018-11-27T08:51:25.264Z,9.47
2018-11-27T08:53:56.490Z,9.60
2018-11-27T08:56:27.637Z,9.40
2018-11-27T08:58:58.814Z,9.41
2018-11-27T09:01:30.343Z,9.40
2018-11-27T09:04:01.674Z,9.41
2018-11-27T09:06:32.988Z,9.54
2018-11-27T09:09:09.481Z,9.14
2018-11-27T09:11:40.614Z,9.28
2018-11-27T09:14:11.782Z,9.38
2018-11-27T09:16:42.999Z,9.59
2018-11-27T09:19:14.197Z,9.68
2018-11-27T09:21:45.424Z,9.48
2018-11-27T09:24:16.610Z,9.59
2018-11-27T09:26:48.716Z,9.67
2018-11-27T09:29:19.943Z,9.58
2018-11-27T09:31:51.037Z,9.62
2018-11-27T09:34:22.542Z,9.83
2018-11-27T09:36:53.781Z,9.81
2018-11-27T09:39:24.938Z,9.81
2018-11-27T09:41:56.060Z,9.82
2018-11-27T09:44:27.200Z,9.90
2018-11-27T09:46:59.256Z,9.57
2018-11-27T09:49:30.497Z,9.54
2018-11-27T09:52:01.628Z,9.68
2018-11-27T09:54:32.954Z,9.59
2018-11-27T09:57:04.141Z,9.37
2018-11-27T09:59:35.394Z,9.53
2018-11-27T10:02:06.722Z,9.58
2018-11-27T10:04:38.022Z,9.53
2018-11-27T10:07:10.209Z,9.48
2018-11-27T10:09:41.544Z,9.21
2018-11-27T10:12:13.468Z,9.16
2018-11-27T10:14:44.617Z,9.09
2018-11-27T10:17:15.788Z,8.86
2018-11-27T10:19:46.988Z,9.13
2018-11-27T10:22:18.119Z,9.08
2018-11-27T10:24:49.232Z,8.90
2018-11-27T10:27:20.413Z,8.91
2018-11-27T10:29:51.637Z,9.26
2018-11-27T10:32:22.822Z,9.24
2018-11-27T10:34:54.161Z,9.08
2018-11-27T10:37:25.333Z,9.35
2018-11-27T10:39:56.476Z,9.63
2018-11-27T10:42:30.120Z,9.90
2018-11-27T10:44:58.780Z,10.13
2018-11-27T10:47:29.948Z,10.09
2018-11-27T10:50:02.040Z,9.83
2018-11-27T10:52:33.273Z,9.94
2018-11-27T10:55:05.201Z,9.94
2018-11-27T10:57:36.347Z,9.91
2018-11-27T11:00:15.728Z,10.17
2018-11-27T11:02:50.898Z,9.89
2018-11-27T11:05:25.644Z,9.89
2018-11-27T11:07:56.833Z,10.16
2018-11-27T11:10:28.048Z,10.30
2018-11-27T11:12:59.213Z,10.38
2018-11-27T11:15:30.426Z,10.51
2018-11-27T11:18:01.583Z,10.50
2018-11-27T11:20:34.168Z,10.44
2018-11-27T11:23:05.453Z,10.14
2018-11-27T11:25:36.616Z,10.18
2018-11-27T11:28:09.280Z,10.24
2018-11-27T11:30:40.447Z,10.37
2018-11-27T11:33:11.817Z,10.35
2018-11-27T11:35:43.194Z,10.34
2018-11-27T11:38:14.435Z,10.26
2018-11-27T11:40:45.585Z,10.44
2018-11-27T11:43:16.679Z,10.58
2018-11-27T11:45:47.844Z,10.52
2018-11-27T11:48:18.995Z,10.79
2018-11-27T11:50:50.207Z,10.81
2018-11-27T11:53:21.315Z,10.93
2018-11-27T11:55:52.517Z,10.70
2018-11-27T11:58:23.673Z,10.35
2018-11-27T12:00:55.848Z,10.40
2018-11-27T12:03:26.967Z,10.54
2018-11-27T12:05:58.984Z,10.19
2018-11-27T12:08:30.136Z,10.18
2018-11-27T12:11:01.285Z,10.03
2018-11-27T12:13:32.392Z,10.13
2018-11-27T12:19:01.647Z,9.89
2018-11-27T12:21:38.005Z,10.09
2018-11-27T12:24:14.482Z,10.06
2018-11-27T12:26:50.648Z,10.04
2018-11-27T12:29:26.962Z,10.09
2018-11-27T12:32:03.323Z,10.13
2018-11-27T12:34:40.145Z,10.24
2018-11-27T12:37:22.278Z,10.26
2018-11-27T12:39:59.225Z,10.22
2018-11-27T12:42:37.920Z,9.96
2018-11-27T12:45:18.542Z,9.92
2018-11-27T12:47:56.722Z,9.84
2018-11-27T12:50:41.085Z,9.65
2018-11-27T12:53:18.768Z,9.71
2018-11-27T12:55:55.736Z,9.78
2018-11-27T12:58:32.456Z,9.90
2018-11-27T13:01:10.595Z,9.91
2018-11-27T13:03:47.626Z,10.10
2018-11-27T13:06:27.779Z,10.15
2018-11-27T13:09:02.754Z,10.23
2018-11-27T13:11:39.470Z,10.25
2018-11-27T13:14:17.477Z,10.22
2018-11-27T13:16:54.320Z,10.12
2018-11-27T13:19:31.437Z,10.07
2018-11-27T13:22:09.289Z,10.19
2018-11-27T13:24:47.980Z,10.16
2018-11-27T13:27:25.916Z,10.10
2018-11-27T13:30:03.493Z,10.06
2018-11-27T13:32:41.395Z,10.10
2018-11-27T13:35:20.022Z,10.14
2018-11-27T13:37:57.233Z,10.16
2018-11-27T13:40:34.779Z,9.97
2018-11-27T13:43:18.359Z,9.85
2018-11-27T13:45:56.881Z,9.80
2018-11-27T13:48:33.955Z,9.69
2018-11-27T13:51:11.022Z,9.50
2018-11-27T13:53:49.781Z,9.45
2018-11-27T13:56:28.659Z,9.40
2018-11-27T13:59:10.540Z,9.64
2018-11-27T14:01:47.457Z,9.73
2018-11-27T14:04:24.495Z,9.56
2018-11-27T14:07:02.327Z,9.41
2018-11-27T14:09:39.876Z,9.52
2018-11-27T14:12:17.964Z,9.67
2018-11-27T14:14:55.998Z,9.75
2018-11-27T14:17:34.183Z,9.73
2018-11-27T14:20:11.758Z,9.80
2018-11-27T14:22:50.841Z,9.83
2018-11-27T14:25:27.771Z,9.73
2018-11-27T14:28:01.792Z,9.83
2018-11-27T14:30:34.333Z,9.89
2018-11-27T14:33:07.767Z,9.67
2018-11-27T14:35:41.008Z,9.58
2018-11-27T14:38:19.588Z,9.42
2018-11-27T14:40:51.996Z,9.32
2018-11-27T14:43:23.917Z,9.45
2018-11-27T14:45:56.789Z,9.62
2018-11-27T14:48:33.945Z,9.65
2018-11-27T14:51:12.023Z,9.79
2018-11-27T14:53:46.582Z,9.86
2018-11-27T14:56:22.799Z,9.80
2018-11-27T14:59:03.775Z,9.76
2018-11-27T15:01:38.995Z,9.67
2018-11-27T15:04:10.938Z,9.58
2018-11-27T15:06:42.342Z,9.52
2018-11-27T15:09:13.873Z,9.51
2018-11-27T15:11:45.279Z,9.57
2018-11-27T15:14:16.977Z,9.37
2018-11-27T15:16:48.635Z,9.34
2018-11-27T15:19:20.034Z,9.41
2018-11-27T15:21:51.419Z,9.40
2018-11-27T15:24:22.467Z,9.45
2018-11-27T15:26:53.981Z,9.54
2018-11-27T15:29:26.385Z,9.54
2018-11-27T15:31:57.753Z,9.59
2018-11-27T15:34:29.557Z,9.74
2018-11-27T15:37:00.926Z,9.78
2018-11-27T15:39:32.283Z,9.86
2018-11-27T15:42:03.719Z,9.78
2018-11-27T15:44:35.015Z,9.72
2018-11-27T15:47:07.482Z,9.61
2018-11-27T15:49:39.352Z,9.59
2018-11-27T15:52:14.083Z,9.53
2018-11-27T15:54:48.456Z,9.47
2018-11-27T15:57:27.086Z,9.53
2018-11-27T15:59:57.702Z,9.47
2018-11-27T16:02:29.073Z,9.54
2018-11-27T16:05:01.893Z,9.31
2018-11-27T16:07:36.236Z,9.24
2018-11-27T16:10:16.418Z,9.41
2018-11-27T16:12:48.000Z,9.35
2018-11-27T16:15:20.197Z,9.40
2018-11-27T16:17:51.780Z,9.38
2018-11-27T16:20:23.369Z,9.28
2018-11-27T16:22:55.046Z,9.43
2018-11-27T16:30:38.617Z,9.48
2018-11-27T16:33:10.614Z,9.38
2018-11-27T16:35:46.663Z,9.23
2018-11-27T16:38:18.044Z,9.15
2018-11-27T16:40:49.688Z,9.14
2018-11-27T16:43:21.096Z,9.01
2018-11-27T16:45:54.111Z,9.27
2018-11-27T16:48:25.943Z,9.16
2018-11-27T16:50:57.409Z,9.32
2018-11-27T16:53:34.520Z,9.33
2018-11-27T16:56:06.334Z,9.27
2018-11-27T16:58:37.790Z,9.40
2018-11-27T17:01:12.021Z,9.51
2018-11-27T17:03:44.036Z,9.39
2018-11-27T17:06:15.382Z,9.36
2018-11-27T17:08:46.764Z,9.13
2018-11-27T17:11:18.187Z,9.39
2018-11-27T17:13:49.593Z,9.31
2018-11-27T17:16:20.927Z,9.33
2018-11-27T17:18:52.277Z,9.38
2018-11-27T17:23:59.066Z,9.36
2018-11-27T17:26:35.450Z,9.12
2018-11-27T17:29:08.309Z,8.99
2018-11-27T17:31:39.706Z,9.00
2018-11-27T17:34:15.848Z,9.06
2018-11-27T17:36:47.244Z,9.19
2018-11-27T17:39:19.091Z,9.01
2018-11-27T17:41:50.943Z,8.78
2018-11-27T17:44:22.825Z,8.87
2018-11-27T17:46:55.264Z,8.91
2018-11-27T17:49:26.647Z,9.02
2018-11-27T17:51:58.130Z,9.09
2018-11-27T17:54:30.073Z,9.18
2018-11-27T17:57:01.603Z,9.14
2018-11-27T17:59:32.948Z,9.21
2018-11-27T18:02:04.375Z,9.11
2018-11-27T18:04:35.705Z,8.96
2018-11-27T18:07:07.408Z,9.01
2018-11-27T18:09:41.896Z,9.02
2018-11-27T18:12:18.919Z,8.88
2018-11-27T18:14:51.221Z,8.92
2018-11-27T18:17:23.373Z,8.92
2018-11-27T18:19:54.683Z,8.94
2018-11-27T18:25:09.653Z,9.04
2018-11-27T18:27:42.943Z,9.12
2018-11-27T18:30:17.346Z,9.01
2018-11-27T18:32:48.935Z,9.07
2018-11-27T18:35:21.952Z,9.04
2018-11-27T18:37:54.034Z,9.18
2018-11-27T18:40:30.553Z,9.01
2018-11-27T18:43:01.882Z,9.14
2018-11-27T18:45:33.216Z,9.12
2018-11-27T18:48:04.991Z,9.17
2018-11-27T18:50:36.885Z,9.25
2018-11-27T18:53:08.810Z,9.18
2018-11-27T18:55:40.427Z,9.06
2018-11-27T18:58:11.819Z,9.16
2018-11-27T19:00:46.883Z,9.24
2018-11-27T19:03:18.403Z,9.16
2018-11-27T19:05:50.101Z,9.15
2018-11-27T19:08:21.438Z,9.16
2018-11-27T19:10:53.344Z,9.29
2018-11-27T19:13:26.121Z,9.25
2018-11-27T19:15:57.534Z,9.06
2018-11-27T19:21:06.307Z,8.93
2018-11-27T19:23:37.616Z,9.04
2018-11-27T19:26:09.374Z,9.09
2018-11-27T19:28:41.353Z,8.88
2018-11-27T19:31:12.878Z,9.15
2018-11-27T19:33:44.335Z,9.10
2018-11-27T19:36:20.826Z,9.09
2018-11-27T19:38:54.447Z,9.16
2018-11-27T19:41:26.292Z,9.14
2018-11-27T19:43:59.348Z,8.92
2018-11-27T19:46:34.670Z,8.78
2018-11-27T19:49:11.452Z,9.01
2018-11-27T19:51:46.063Z,9.07
2018-11-27T19:54:18.540Z,8.94
2018-11-27T19:56:52.821Z,9.03
2018-11-27T19:59:36.967Z,9.05
2018-11-27T20:02:09.327Z,8.99
2018-11-27T20:04:41.162Z,8.86
2018-11-27T20:07:13.005Z,8.91
2018-11-27T20:09:44.783Z,9.01
2018-11-27T20:12:19.780Z,9.06
2018-11-27T20:14:53.488Z,9.02
2018-11-27T20:17:25.228Z,9.08
2018-11-27T20:19:58.643Z,9.12
2018-11-27T20:22:30.687Z,9.10
2018-11-27T20:25:02.623Z,8.81
2018-11-27T20:27:33.859Z,8.78
2018-11-27T20:30:06.810Z,8.96
2018-11-27T20:32:38.091Z,9.01
2018-11-27T20:35:12.196Z,8.88
2018-11-27T20:37:43.760Z,9.04
2018-11-27T20:40:16.279Z,9.05
2018-11-27T20:42:50.056Z,8.99
2018-11-27T20:45:22.434Z,8.81
2018-11-27T20:47:55.047Z,8.88
2018-11-27T20:50:26.804Z,8.99
2018-11-27T20:52:58.336Z,8.83
2018-11-27T20:55:29.615Z,8.76
2018-11-27T20:58:01.797Z,8.84
2018-11-27T21:00:40.007Z,9.01
2018-11-27T21:03:18.940Z,8.95
2018-11-27T21:05:55.416Z,8.86
2018-11-27T21:08:31.687Z,8.82
2018-11-27T21:11:08.411Z,8.82
2018-11-27T21:13:44.166Z,8.87
2018-11-27T21:16:20.504Z,8.88
2018-11-27T21:18:56.714Z,9.09
2018-11-27T21:21:37.185Z,9.06
2018-11-27T21:24:18.978Z,9.07
2018-11-27T21:26:55.448Z,9.06
2018-11-27T21:29:31.827Z,9.05
2018-11-27T21:32:13.321Z,9.25
2018-11-27T21:34:49.931Z,9.22
2018-11-27T21:37:28.704Z,9.20
2018-11-27T21:40:05.887Z,9.22
2018-11-27T21:42:43.131Z,9.28
2018-11-27T21:45:22.848Z,8.98
2018-11-27T21:47:59.949Z,8.92
2018-11-27T21:50:42.612Z,9.02
2018-11-27T21:53:19.396Z,9.11
2018-11-27T21:55:56.944Z,9.06
2018-11-27T21:58:34.348Z,9.02
2018-11-27T22:01:10.784Z,9.05
2018-11-27T22:03:46.978Z,9.09
2018-11-27T22:09:06.456Z,8.87
2018-11-27T22:11:42.824Z,8.89
2018-11-27T22:14:19.154Z,9.08
2018-11-27T22:16:55.532Z,9.08
2018-11-27T22:19:31.907Z,9.02
2018-11-27T22:22:08.283Z,9.08
2018-11-27T22:24:44.560Z,9.06
2018-11-27T22:27:21.081Z,8.81
2018-11-27T22:29:57.595Z,8.84
2018-11-27T22:32:33.952Z,8.87
2018-11-27T22:35:10.679Z,8.93
2018-11-27T22:37:47.997Z,8.91
2018-11-27T22:40:25.718Z,9.02
2018-11-27T22:43:01.941Z,8.78
2018-11-27T22:45:40.993Z,8.64
2018-11-27T22:48:17.356Z,8.51
2018-11-27T22:50:53.839Z,8.65
2018-11-27T22:53:30.367Z,8.60
2018-11-27T22:56:06.829Z,8.64
2018-11-27T22:58:43.644Z,8.65
2018-11-27T23:01:20.098Z,8.81
2018-11-27T23:03:56.571Z,8.66
2018-11-27T23:06:33.008Z,8.80
2018-11-27T23:09:10.358Z,8.83
2018-11-27T23:11:46.803Z,8.95
2018-11-27T23:14:23.276Z,8.82
2018-11-27T23:16:59.569Z,8.88
2018-11-27T23:19:48.346Z,8.87
2018-11-27T23:22:24.855Z,8.81
2018-11-27T23:25:01.374Z,8.75
2018-11-27T23:27:37.732Z,8.65
2018-11-27T23:30:15.131Z,8.70
2018-11-27T23:32:51.803Z,8.68
2018-11-27T23:35:28.346Z,8.69
2018-11-27T23:38:04.798Z,8.72
2018-11-27T23:40:41.198Z,8.71
2018-11-27T23:43:17.645Z,8.72
2018-11-27T23:45:54.120Z,8.63
2018-11-27T23:48:30.362Z,8.68
2018-11-27T23:51:07.474Z,8.56
2018-11-27T23:53:43.787Z,8.44
2018-11-27T23:56:20.106Z,8.36
2018-11-27T23:58:56.325Z,8.24
